createdAt,value
2018-07-08T00:00:54.717Z,1019.12
2018-07-08T00:01:54.694Z,1019.15
2018-07-08T00:02:54.665Z,1019.15
2018-07-08T00:03:57.464Z,1019.13
2018-07-08T00:04:54.612Z,1019.13
2018-07-08T00:05:54.587Z,1019.05
2018-07-08T00:06:54.561Z,1019.10
2018-07-08T00:07:54.538Z,1019.06
2018-07-08T00:08:54.714Z,1019.04
2018-07-08T00:09:54.486Z,1019.01
2018-07-08T00:10:54.664Z,1019.02
2018-07-08T00:11:54.434Z,1018.95
2018-07-08T00:12:54.409Z,1019.03
2018-07-08T00:13:54.390Z,1019.01
2018-07-08T00:14:54.357Z,1019.09
2018-07-08T00:15:54.333Z,1019.00
2018-07-08T00:16:54.305Z,1019.03
2018-07-08T00:17:54.280Z,1019.03
2018-07-08T00:18:54.257Z,1019.04
2018-07-08T00:19:54.436Z,1019.05
2018-07-08T00:20:54.412Z,1019.05
2018-07-08T00:21:54.181Z,1019.03
2018-07-08T00:22:55.167Z,1018.97
2018-07-08T00:23:54.137Z,1019.02
2018-07-08T00:24:54.305Z,1018.98
2018-07-08T00:25:54.077Z,1018.97
2018-07-08T00:26:54.052Z,1018.91
2018-07-08T00:27:54.029Z,1018.93
2018-07-08T00:28:54.003Z,1018.89
2018-07-08T00:29:53.977Z,1018.93
2018-07-08T00:30:53.956Z,1018.96
2018-07-08T00:31:53.925Z,1018.90
2018-07-08T00:32:53.901Z,1018.87
2018-07-08T00:33:53.875Z,1018.94
2018-07-08T00:34:53.848Z,1018.93
2018-07-08T00:35:53.822Z,1018.93
2018-07-08T00:36:53.797Z,1018.91
2018-07-08T00:37:53.769Z,1018.88
2018-07-08T00:38:53.745Z,1018.89
2018-07-08T00:39:53.748Z,1018.82
2018-07-08T00:40:53.697Z,1018.87
2018-07-08T00:41:53.671Z,1018.88
2018-07-08T00:42:53.645Z,1018.94
2018-07-08T00:43:53.618Z,1018.92
2018-07-08T00:44:53.591Z,1018.98
2018-07-08T00:45:53.568Z,1018.95
2018-07-08T00:46:53.747Z,1018.98
2018-07-08T00:47:53.520Z,1018.99
2018-07-08T00:48:53.790Z,1018.95
2018-07-08T00:49:53.464Z,1018.98
2018-07-08T00:50:53.440Z,1018.98
2018-07-08T00:51:53.415Z,1018.96
2018-07-08T00:52:53.391Z,1018.97
2018-07-08T00:53:53.395Z,1019.02
2018-07-08T00:54:53.339Z,1018.98
2018-07-08T00:55:53.311Z,1019.01
2018-07-08T00:56:53.287Z,1018.99
2018-07-08T00:57:53.259Z,1018.97
2018-07-08T00:58:53.234Z,1018.98
2018-07-08T00:59:53.213Z,1018.95
2018-07-08T01:00:53.185Z,1018.99
2018-07-08T01:01:53.160Z,1018.97
2018-07-08T01:02:53.134Z,1018.88
2018-07-08T01:03:53.132Z,1018.89
2018-07-08T01:04:53.083Z,1018.93
2018-07-08T01:05:53.057Z,1018.91
2018-07-08T01:06:53.032Z,1018.83
2018-07-08T01:07:53.008Z,1018.88
2018-07-08T01:08:52.980Z,1018.91
2018-07-08T01:09:52.953Z,1018.99
2018-07-08T01:10:52.928Z,1018.96
2018-07-08T01:11:52.909Z,1018.92
2018-07-08T01:12:52.879Z,1018.97
2018-07-08T01:13:52.853Z,1018.95
2018-07-08T01:14:52.827Z,1018.90
2018-07-08T01:15:52.802Z,1018.90
2018-07-08T01:16:52.779Z,1018.94
2018-07-08T01:17:52.749Z,1018.89
2018-07-08T01:18:53.524Z,1018.93
2018-07-08T01:19:52.697Z,1018.96
2018-07-08T01:20:52.673Z,1019.00
2018-07-08T01:21:52.647Z,1018.97
2018-07-08T01:22:52.624Z,1019.00
2018-07-08T01:23:52.599Z,1018.96
2018-07-08T01:24:52.572Z,1018.99
2018-07-08T01:25:52.551Z,1018.97
2018-07-08T01:26:52.522Z,1019.00
2018-07-08T01:27:52.494Z,1019.00
2018-07-08T01:28:52.469Z,1018.96
2018-07-08T01:29:52.443Z,1019.03
2018-07-08T01:30:52.421Z,1019.09
2018-07-08T01:31:52.440Z,1019.03
2018-07-08T01:32:52.370Z,1019.07
2018-07-08T01:33:52.344Z,1019.08
2018-07-08T01:34:52.317Z,1019.10
2018-07-08T01:35:52.290Z,1019.01
2018-07-08T01:36:52.267Z,1018.95
2018-07-08T01:37:52.243Z,1019.06
2018-07-08T01:38:52.214Z,1019.03
2018-07-08T01:39:52.191Z,1019.04
2018-07-08T01:40:52.164Z,1019.06
2018-07-08T01:41:52.139Z,1019.04
2018-07-08T01:42:52.113Z,1019.07
2018-07-08T01:43:52.085Z,1019.01
2018-07-08T01:44:52.060Z,1019.10
2018-07-08T01:45:52.040Z,1019.07
2018-07-08T01:46:52.010Z,1019.03
2018-07-08T01:47:51.985Z,1019.06
2018-07-08T01:48:51.960Z,1019.11
2018-07-08T01:49:51.933Z,1019.04
2018-07-08T01:50:51.907Z,1019.11
2018-07-08T01:51:51.884Z,1019.12
2018-07-08T01:52:51.856Z,1019.14
2018-07-08T01:53:51.864Z,1019.13
2018-07-08T01:54:51.811Z,1019.13
2018-07-08T01:55:51.778Z,1019.10
2018-07-08T01:56:51.753Z,1019.12
2018-07-08T01:57:51.750Z,1019.09
2018-07-08T01:58:51.702Z,1019.12
2018-07-08T01:59:51.678Z,1019.07
2018-07-08T02:00:51.651Z,1018.80
2018-07-08T02:01:51.626Z,1019.05
2018-07-08T02:02:51.602Z,1019.04
2018-07-08T02:03:51.573Z,1019.05
2018-07-08T02:04:51.548Z,1018.98
2018-07-08T02:05:51.526Z,1019.04
2018-07-08T02:06:51.502Z,1019.09
2018-07-08T02:07:51.484Z,1019.07
2018-07-08T02:08:51.452Z,1019.06
2018-07-08T02:09:51.425Z,1019.08
2018-07-08T02:10:51.396Z,1019.06
2018-07-08T02:11:51.371Z,1018.92
2018-07-08T02:12:51.344Z,1019.02
2018-07-08T02:13:51.318Z,1019.02
2018-07-08T02:14:51.292Z,1019.09
2018-07-08T02:15:51.467Z,1019.01
2018-07-08T02:16:51.440Z,1019.00
2018-07-08T02:17:51.213Z,1019.05
2018-07-08T02:18:51.189Z,1019.05
2018-07-08T02:19:51.173Z,1019.06
2018-07-08T02:20:51.138Z,1019.04
2018-07-08T02:21:51.111Z,1019.01
2018-07-08T02:22:51.085Z,1019.01
2018-07-08T02:23:51.060Z,1019.00
2018-07-08T02:24:51.036Z,1018.96
2018-07-08T02:25:51.009Z,1018.99
2018-07-08T02:26:50.983Z,1018.93
2018-07-08T02:27:50.955Z,1018.93
2018-07-08T02:28:50.929Z,1018.92
2018-07-08T02:29:50.903Z,1018.95
2018-07-08T02:30:50.888Z,1018.98
2018-07-08T02:31:50.856Z,1019.00
2018-07-08T02:32:50.828Z,1018.95
2018-07-08T02:33:50.810Z,1019.00
2018-07-08T02:34:51.278Z,1019.05
2018-07-08T02:35:50.751Z,1018.98
2018-07-08T02:36:50.724Z,1019.04
2018-07-08T02:37:50.699Z,1019.00
2018-07-08T02:38:50.675Z,1019.01
2018-07-08T02:39:50.647Z,1019.03
2018-07-08T02:40:50.620Z,1019.02
2018-07-08T02:41:50.594Z,1018.92
2018-07-08T02:42:50.576Z,1018.97
2018-07-08T02:43:50.546Z,1018.87
2018-07-08T02:44:50.525Z,1019.05
2018-07-08T02:45:50.503Z,1019.03
2018-07-08T02:46:50.467Z,1019.06
2018-07-08T02:47:50.442Z,1019.01
2018-07-08T02:48:50.414Z,1019.04
2018-07-08T02:49:50.388Z,1019.02
2018-07-08T02:50:50.365Z,1019.10
2018-07-08T02:51:50.339Z,1019.11
2018-07-08T02:52:50.519Z,1019.14
2018-07-08T02:53:50.898Z,1019.11
2018-07-08T02:54:50.471Z,1019.10
2018-07-08T02:55:50.438Z,1019.18
2018-07-08T02:56:50.411Z,1019.14
2018-07-08T02:57:50.384Z,1019.27
2018-07-08T02:58:52.981Z,1019.19
2018-07-08T02:59:50.332Z,1019.22
2018-07-08T03:00:50.103Z,1019.18
2018-07-08T03:01:50.080Z,1019.23
2018-07-08T03:02:50.053Z,1019.20
2018-07-08T03:03:50.235Z,1019.21
2018-07-08T03:04:50.012Z,1019.16
2018-07-08T03:05:49.981Z,1019.16
2018-07-08T03:06:49.951Z,1019.13
2018-07-08T03:07:49.937Z,1019.21
2018-07-08T03:08:49.896Z,1019.17
2018-07-08T03:09:49.869Z,1019.19
2018-07-08T03:10:49.844Z,1019.19
2018-07-08T03:11:49.818Z,1019.06
2018-07-08T03:12:49.792Z,1019.20
2018-07-08T03:13:49.766Z,1019.21
2018-07-08T03:14:49.740Z,1019.19
2018-07-08T03:15:49.918Z,1019.20
2018-07-08T03:16:49.692Z,1019.18
2018-07-08T03:17:49.668Z,1019.20
2018-07-08T03:18:49.640Z,1019.21
2018-07-08T03:19:49.611Z,1019.16
2018-07-08T03:20:49.589Z,1019.15
2018-07-08T03:21:49.559Z,1019.21
2018-07-08T03:22:49.535Z,1019.33
2018-07-08T03:23:49.512Z,1019.28
2018-07-08T03:24:49.486Z,1019.30
2018-07-08T03:25:49.462Z,1019.23
2018-07-08T03:26:49.431Z,1019.28
2018-07-08T03:27:49.408Z,1019.29
2018-07-08T03:28:49.380Z,1019.31
2018-07-08T03:29:49.355Z,1019.28
2018-07-08T03:30:49.330Z,1019.32
2018-07-08T03:31:49.303Z,1019.33
2018-07-08T03:32:49.277Z,1019.33
2018-07-08T03:33:49.252Z,1019.31
2018-07-08T03:34:49.223Z,1019.36
2018-07-08T03:35:49.201Z,1019.40
2018-07-08T03:36:49.175Z,1019.39
2018-07-08T03:37:49.349Z,1019.40
2018-07-08T03:38:49.122Z,1019.45
2018-07-08T03:39:49.296Z,1019.41
2018-07-08T03:40:49.068Z,1019.43
2018-07-08T03:41:49.043Z,1019.37
2018-07-08T03:42:49.218Z,1019.43
2018-07-08T03:43:48.995Z,1019.51
2018-07-08T03:44:48.967Z,1019.46
2018-07-08T03:45:48.943Z,1019.46
2018-07-08T03:46:48.915Z,1019.43
2018-07-08T03:47:48.889Z,1019.45
2018-07-08T03:48:48.861Z,1019.50
2018-07-08T03:49:48.833Z,1019.54
2018-07-08T03:50:48.810Z,1019.53
2018-07-08T03:51:48.785Z,1019.53
2018-07-08T03:52:48.760Z,1019.48
2018-07-08T03:53:48.739Z,1019.47
2018-07-08T03:54:48.710Z,1019.52
2018-07-08T03:55:48.684Z,1019.50
2018-07-08T03:56:48.656Z,1019.52
2018-07-08T03:57:48.628Z,1019.52
2018-07-08T03:58:48.609Z,1019.55
2018-07-08T03:59:48.579Z,1019.58
2018-07-08T04:00:48.557Z,1019.62
2018-07-08T04:01:48.732Z,1019.60
2018-07-08T04:02:48.502Z,1019.62
2018-07-08T04:03:48.479Z,1019.64
2018-07-08T04:04:48.453Z,1019.67
2018-07-08T04:05:48.426Z,1019.65
2018-07-08T04:06:48.402Z,1019.67
2018-07-08T04:07:48.374Z,1019.65
2018-07-08T04:08:48.350Z,1019.66
2018-07-08T04:09:48.324Z,1019.63
2018-07-08T04:10:48.299Z,1019.65
2018-07-08T04:11:48.276Z,1019.64
2018-07-08T04:12:48.253Z,1019.60
2018-07-08T04:13:48.225Z,1019.63
2018-07-08T04:14:48.202Z,1019.60
2018-07-08T04:15:48.176Z,1019.65
2018-07-08T04:16:48.156Z,1019.67
2018-07-08T04:17:48.130Z,1019.67
2018-07-08T04:18:48.101Z,1019.65
2018-07-08T04:19:48.074Z,1019.73
2018-07-08T04:20:48.049Z,1019.71
2018-07-08T04:21:48.025Z,1019.71
2018-07-08T04:22:48.000Z,1019.74
2018-07-08T04:23:48.186Z,1019.77
2018-07-08T04:24:47.953Z,1019.71
2018-07-08T04:25:47.927Z,1019.84
2018-07-08T04:26:47.911Z,1019.74
2018-07-08T04:27:47.879Z,1019.81
2018-07-08T04:28:47.852Z,1019.78
2018-07-08T04:29:47.825Z,1019.80
2018-07-08T04:30:47.802Z,1019.85
2018-07-08T04:31:47.776Z,1019.82
2018-07-08T04:32:47.753Z,1019.81
2018-07-08T04:33:47.728Z,1019.89
2018-07-08T04:34:47.705Z,1019.91
2018-07-08T04:35:47.682Z,1019.84
2018-07-08T04:36:50.887Z,1019.86
2018-07-08T04:38:29.983Z,1019.92
2018-07-08T04:39:29.960Z,1019.87
2018-07-08T04:40:29.934Z,1019.91
2018-07-08T04:41:29.711Z,1019.87
2018-07-08T04:42:29.685Z,1019.97
2018-07-08T04:43:29.672Z,1020.02
2018-07-08T04:44:29.639Z,1020.02
2018-07-08T04:45:29.612Z,1020.05
2018-07-08T04:46:29.589Z,1019.94
2018-07-08T04:47:29.563Z,1019.94
2018-07-08T04:48:29.589Z,1019.98
2018-07-08T04:49:29.517Z,1020.04
2018-07-08T04:50:29.494Z,1020.10
2018-07-08T04:51:29.678Z,1020.15
2018-07-08T04:52:29.445Z,1020.24
2018-07-08T04:53:29.420Z,1020.26
2018-07-08T04:54:29.398Z,1020.31
2018-07-08T04:55:29.373Z,1020.19
2018-07-08T04:56:29.350Z,1020.31
2018-07-08T04:57:29.325Z,1020.29
2018-07-08T04:58:29.503Z,1020.43
2018-07-08T04:59:29.276Z,1020.41
2018-07-08T05:00:29.254Z,1020.48
2018-07-08T05:01:29.432Z,1020.47
2018-07-08T05:02:32.033Z,1020.41
2018-07-08T05:03:29.791Z,1020.72
2018-07-08T05:04:29.361Z,1020.82
2018-07-08T05:05:29.337Z,1020.98
2018-07-08T05:06:29.363Z,1021.09
2018-07-08T05:07:29.288Z,1021.46
2018-07-08T05:08:29.064Z,1022.30
2018-07-08T05:09:29.041Z,1022.25
2018-07-08T05:10:29.018Z,1021.51
2018-07-08T05:11:28.993Z,1020.55
2018-07-08T05:12:28.969Z,1020.46
2018-07-08T05:13:28.949Z,1020.53
2018-07-08T05:14:28.932Z,1020.52
2018-07-08T05:15:28.901Z,1020.55
2018-07-08T05:16:28.883Z,1020.48
2018-07-08T05:17:28.855Z,1020.54
2018-07-08T05:18:28.832Z,1020.53
2018-07-08T05:19:28.809Z,1020.58
2018-07-08T05:20:28.857Z,1020.58
2018-07-08T05:21:28.765Z,1020.51
2018-07-08T05:22:28.741Z,1020.55
2018-07-08T05:23:28.726Z,1020.52
2018-07-08T05:24:28.696Z,1020.63
2018-07-08T05:25:28.672Z,1020.65
2018-07-08T05:26:28.651Z,1020.59
2018-07-08T05:27:28.628Z,1020.66
2018-07-08T05:28:28.603Z,1020.63
2018-07-08T05:29:28.583Z,1020.64
2018-07-08T05:30:28.557Z,1020.60
2018-07-08T05:31:28.534Z,1020.67
2018-07-08T05:32:28.513Z,1020.68
2018-07-08T05:33:28.492Z,1020.65
2018-07-08T05:34:28.472Z,1020.60
2018-07-08T05:35:28.447Z,1020.70
2018-07-08T05:36:28.426Z,1020.70
2018-07-08T05:37:28.404Z,1020.66
2018-07-08T05:38:28.379Z,1020.68
2018-07-08T05:39:28.356Z,1020.66
2018-07-08T05:40:28.335Z,1020.68
2018-07-08T05:41:28.315Z,1020.67
2018-07-08T05:42:28.292Z,1020.66
2018-07-08T05:43:28.270Z,1020.68
2018-07-08T05:44:28.249Z,1020.67
2018-07-08T05:45:28.227Z,1020.73
2018-07-08T05:46:28.204Z,1020.79
2018-07-08T05:47:28.181Z,1020.80
2018-07-08T05:48:28.159Z,1020.82
2018-07-08T05:49:28.140Z,1020.84
2018-07-08T05:50:28.265Z,1020.84
2018-07-08T05:51:28.095Z,1020.96
2018-07-08T05:52:28.075Z,1021.05
2018-07-08T05:53:28.051Z,1021.02
2018-07-08T05:54:28.030Z,1021.06
2018-07-08T05:55:28.009Z,1021.20
2018-07-08T05:56:27.987Z,1021.13
2018-07-08T05:57:28.172Z,1021.18
2018-07-08T05:58:27.948Z,1021.27
2018-07-08T05:59:27.923Z,1021.30
2018-07-08T06:00:27.902Z,1021.32
2018-07-08T06:01:27.883Z,1021.34
2018-07-08T06:02:27.863Z,1021.37
2018-07-08T06:03:27.843Z,1021.45
2018-07-08T06:04:27.822Z,1021.66
2018-07-08T06:05:27.799Z,1021.68
2018-07-08T06:06:27.776Z,1021.68
2018-07-08T06:07:27.755Z,1021.65
2018-07-08T06:08:27.735Z,1021.70
2018-07-08T06:09:27.716Z,1021.68
2018-07-08T06:10:27.696Z,1021.62
2018-07-08T06:11:27.675Z,1021.70
2018-07-08T06:12:27.653Z,1021.77
2018-07-08T06:13:27.635Z,1021.74
2018-07-08T06:14:27.620Z,1021.70
2018-07-08T06:15:27.624Z,1021.70
2018-07-08T06:16:27.573Z,1021.66
2018-07-08T06:17:27.555Z,1021.72
2018-07-08T06:18:27.735Z,1021.68
2018-07-08T06:19:27.515Z,1021.72
2018-07-08T06:20:27.694Z,1021.80
2018-07-08T06:21:27.478Z,1021.78
2018-07-08T06:22:27.454Z,1021.70
2018-07-08T06:23:27.634Z,1021.63
2018-07-08T06:24:27.414Z,1021.69
2018-07-08T06:25:27.596Z,1021.67
2018-07-08T06:26:27.373Z,1021.68
2018-07-08T06:27:27.353Z,1021.71
2018-07-08T06:28:27.333Z,1021.68
2018-07-08T06:29:27.315Z,1021.66
2018-07-08T06:30:27.294Z,1021.69
2018-07-08T06:31:27.274Z,1021.70
2018-07-08T06:32:27.297Z,1021.77
2018-07-08T06:33:27.243Z,1021.81
2018-07-08T06:34:27.220Z,1021.81
2018-07-08T06:35:27.199Z,1021.81
2018-07-08T06:36:27.179Z,1021.72
2018-07-08T06:37:27.161Z,1021.82
2018-07-08T06:38:27.140Z,1021.81
2018-07-08T06:39:27.141Z,1021.79
2018-07-08T06:40:27.105Z,1021.81
2018-07-08T06:41:27.083Z,1021.83
2018-07-08T06:42:27.076Z,1021.76
2018-07-08T06:43:27.046Z,1021.75
2018-07-08T06:44:27.027Z,1021.81
2018-07-08T06:45:27.009Z,1021.81
2018-07-08T06:46:26.994Z,1021.86
2018-07-08T06:47:26.971Z,1021.88
2018-07-08T06:48:26.951Z,1021.91
2018-07-08T06:49:26.932Z,1021.96
2018-07-08T06:50:26.916Z,1021.97
2018-07-08T06:51:26.895Z,1021.95
2018-07-08T06:52:26.877Z,1021.97
2018-07-08T06:53:26.861Z,1021.96
2018-07-08T06:54:26.847Z,1021.92
2018-07-08T06:55:26.828Z,1021.95
2018-07-08T06:56:26.808Z,1021.92
2018-07-08T06:57:26.786Z,1021.97
2018-07-08T06:58:26.769Z,1021.94
2018-07-08T06:59:26.754Z,1021.95
2018-07-08T07:00:26.731Z,1021.96
2018-07-08T07:01:26.714Z,1021.95
2018-07-08T07:02:26.696Z,1021.97
2018-07-08T07:03:26.677Z,1021.93
2018-07-08T07:04:26.659Z,1021.91
2018-07-08T07:05:26.647Z,1021.93
2018-07-08T07:06:26.627Z,1021.92
2018-07-08T07:07:26.608Z,1021.94
2018-07-08T07:08:26.591Z,1021.93
2018-07-08T07:09:26.573Z,1021.90
2018-07-08T07:10:26.554Z,1021.90
2018-07-08T07:11:26.538Z,1021.89
2018-07-08T07:12:26.518Z,1021.89
2018-07-08T07:13:26.504Z,1021.89
2018-07-08T07:14:26.485Z,1021.84
2018-07-08T07:15:26.467Z,1021.84
2018-07-08T07:16:26.454Z,1021.85
2018-07-08T07:17:26.467Z,1021.82
2018-07-08T07:18:26.620Z,1021.86
2018-07-08T07:19:26.403Z,1021.84
2018-07-08T07:20:26.382Z,1021.84
2018-07-08T07:21:26.364Z,1021.83
2018-07-08T07:22:26.348Z,1021.86
2018-07-08T07:23:26.328Z,1021.88
2018-07-08T07:24:26.512Z,1021.93
2018-07-08T07:25:26.299Z,1021.93
2018-07-08T07:26:26.480Z,1021.84
2018-07-08T07:27:26.464Z,1021.88
2018-07-08T07:28:26.260Z,1021.91
2018-07-08T07:29:26.427Z,1021.86
2018-07-08T07:30:26.410Z,1021.77
2018-07-08T07:31:26.190Z,1021.89
2018-07-08T07:32:26.376Z,1021.83
2018-07-08T07:34:50.673Z,1021.93
2018-07-08T07:35:50.656Z,1021.96
2018-07-08T07:36:50.438Z,1021.89
2018-07-08T07:37:50.423Z,1021.82
2018-07-08T07:38:50.405Z,1021.91
2018-07-08T07:39:50.393Z,1021.85
2018-07-08T07:40:50.372Z,1021.89
2018-07-08T07:41:50.353Z,1021.91
2018-07-08T07:42:50.336Z,1021.83
2018-07-08T07:43:50.321Z,1021.94
2018-07-08T07:44:50.301Z,1021.89
2018-07-08T07:45:50.289Z,1021.89
2018-07-08T07:46:50.271Z,1021.85
2018-07-08T07:47:50.255Z,1021.88
2018-07-08T07:48:50.240Z,1021.84
2018-07-08T07:49:50.222Z,1021.89
2018-07-08T07:50:50.407Z,1021.92
2018-07-08T07:52:32.546Z,1021.89
2018-07-08T07:53:32.330Z,1021.84
2018-07-08T07:55:56.830Z,1021.88
2018-07-08T07:56:56.610Z,1021.82
2018-07-08T07:57:56.593Z,1021.80
2018-07-08T07:58:56.639Z,1021.71
2018-07-08T07:59:56.563Z,1021.80
2018-07-08T08:00:56.751Z,1021.72
2018-07-08T08:01:56.532Z,1021.77
2018-07-08T08:02:56.514Z,1021.77
2018-07-08T08:03:56.499Z,1021.74
2018-07-08T08:04:56.482Z,1021.70
2018-07-08T08:05:56.466Z,1021.71
2018-07-08T08:06:56.458Z,1021.70
2018-07-08T08:07:56.640Z,1021.80
2018-07-08T08:08:56.423Z,1021.72
2018-07-08T08:09:56.609Z,1021.65
2018-07-08T08:10:56.391Z,1021.73
2018-07-08T08:11:56.579Z,1021.74
2018-07-08T08:12:56.360Z,1021.75
2018-07-08T08:13:56.625Z,1021.75
2018-07-08T08:14:56.331Z,1021.72
2018-07-08T08:15:56.516Z,1021.74
2018-07-08T08:16:56.301Z,1021.74
2018-07-08T08:17:56.282Z,1021.74
2018-07-08T08:18:56.271Z,1021.76
2018-07-08T08:19:56.456Z,1021.76
2018-07-08T08:20:56.284Z,1021.82
2018-07-08T08:21:56.224Z,1021.79
2018-07-08T08:22:56.208Z,1021.88
2018-07-08T08:23:56.394Z,1021.85
2018-07-08T08:24:56.380Z,1021.80
2018-07-08T08:25:56.162Z,1021.85
2018-07-08T08:26:56.148Z,1021.88
2018-07-08T08:27:56.132Z,1021.87
2018-07-08T08:28:56.117Z,1021.81
2018-07-08T08:29:56.103Z,1021.86
2018-07-08T08:30:56.095Z,1021.84
2018-07-08T08:31:56.082Z,1021.88
2018-07-08T08:32:56.262Z,1021.92
2018-07-08T08:33:56.046Z,1021.82
2018-07-08T08:34:56.234Z,1021.88
2018-07-08T08:35:56.218Z,1021.81
2018-07-08T08:36:58.824Z,1021.84
2018-07-08T08:37:56.191Z,1021.84
2018-07-08T08:38:56.378Z,1021.79
2018-07-08T08:39:56.173Z,1021.78
2018-07-08T08:40:55.944Z,1021.80
2018-07-08T08:41:55.930Z,1021.74
2018-07-08T08:42:55.922Z,1021.77
2018-07-08T08:43:55.903Z,1021.66
2018-07-08T08:44:55.886Z,1021.66
2018-07-08T08:45:55.904Z,1021.72
2018-07-08T08:46:55.857Z,1021.71
2018-07-08T08:47:55.844Z,1021.77
2018-07-08T08:48:55.827Z,1021.74
2018-07-08T08:50:38.440Z,1021.65
2018-07-08T08:51:38.223Z,1021.74
2018-07-08T08:52:38.208Z,1021.75
2018-07-08T08:53:38.197Z,1021.69
2018-07-08T08:54:38.184Z,1021.74
2018-07-08T08:55:39.380Z,1021.76
2018-07-08T08:56:38.357Z,1021.69
2018-07-08T08:57:38.343Z,1021.72
2018-07-08T08:58:38.327Z,1021.80
2018-07-08T08:59:38.110Z,1021.76
2018-07-08T09:00:38.097Z,1021.68
2018-07-08T09:01:38.085Z,1021.75
2018-07-08T09:02:38.071Z,1021.70
2018-07-08T09:03:38.288Z,1021.66
2018-07-08T09:04:38.043Z,1021.75
2018-07-08T09:05:38.028Z,1021.77
2018-07-08T09:06:38.218Z,1021.80
2018-07-08T09:07:38.203Z,1021.78
2018-07-08T09:08:37.988Z,1021.75
2018-07-08T09:09:38.176Z,1021.81
2018-07-08T09:10:37.958Z,1021.80
2018-07-08T09:11:38.144Z,1021.78
2018-07-08T09:12:37.930Z,1021.75
2018-07-08T09:13:37.919Z,1021.69
2018-07-08T09:14:37.907Z,1021.79
2018-07-08T09:15:38.093Z,1021.68
2018-07-08T09:16:38.083Z,1021.67
2018-07-08T09:17:37.863Z,1021.63
2018-07-08T09:18:37.848Z,1021.67
2018-07-08T09:19:37.833Z,1021.58
2018-07-08T09:20:38.023Z,1021.57
2018-07-08T09:21:38.013Z,1021.54
2018-07-08T09:23:20.159Z,1021.58
2018-07-08T09:24:20.146Z,1021.54
2018-07-08T09:25:22.749Z,1021.54
2018-07-08T09:26:20.118Z,1021.57
2018-07-08T09:27:19.900Z,1021.50
2018-07-08T09:28:20.090Z,1021.53
2018-07-08T09:29:20.106Z,1021.54
2018-07-08T09:30:19.864Z,1021.71
2018-07-08T09:31:20.052Z,1021.69
2018-07-08T09:32:19.832Z,1021.75
2018-07-08T09:34:44.342Z,1022.01
2018-07-08T09:35:44.328Z,1021.87
2018-07-08T09:36:44.113Z,1021.62
2018-07-08T09:37:44.104Z,1021.52
2018-07-08T09:38:44.352Z,1021.46
2018-07-08T09:39:44.076Z,1021.32
2018-07-08T09:40:44.066Z,1021.04
2018-07-08T09:41:44.049Z,1020.83
2018-07-08T09:42:44.238Z,1020.78
2018-07-08T09:43:44.224Z,1020.72
2018-07-08T09:44:44.211Z,1020.70
2018-07-08T09:45:44.201Z,1020.69
2018-07-08T09:46:43.990Z,1020.73
2018-07-08T09:47:44.176Z,1020.67
2018-07-08T09:48:44.162Z,1020.68
2018-07-08T09:49:43.948Z,1020.65
2018-07-08T09:50:43.935Z,1020.65
2018-07-08T09:51:43.920Z,1020.67
2018-07-08T09:52:43.913Z,1020.64
2018-07-08T09:53:43.897Z,1020.63
2018-07-08T09:54:43.881Z,1020.65
2018-07-08T09:55:43.867Z,1020.70
2018-07-08T09:56:43.864Z,1020.74
2018-07-08T09:57:43.843Z,1020.68
2018-07-08T09:58:43.833Z,1020.71
2018-07-08T09:59:47.860Z,1020.75
2018-07-08T10:00:44.008Z,1020.78
2018-07-08T10:01:44.018Z,1020.72
2018-07-08T10:02:43.784Z,1020.72
2018-07-08T10:04:26.153Z,1020.81
2018-07-08T10:05:26.123Z,1020.79
2018-07-08T10:06:26.711Z,1020.81
2018-07-08T10:07:26.096Z,1020.87
2018-07-08T10:08:25.883Z,1020.91
2018-07-08T10:09:25.866Z,1020.93
2018-07-08T10:10:25.854Z,1020.88
2018-07-08T10:11:25.839Z,1020.92
2018-07-08T10:12:25.827Z,1020.87
2018-07-08T10:13:25.813Z,1020.93
2018-07-08T10:14:25.802Z,1020.92
2018-07-08T10:15:25.791Z,1020.88
2018-07-08T10:16:25.802Z,1020.85
2018-07-08T10:17:25.769Z,1020.90
2018-07-08T10:18:25.758Z,1020.96
2018-07-08T10:19:25.834Z,1020.93
2018-07-08T10:20:25.730Z,1020.97
2018-07-08T10:21:25.925Z,1021.00
2018-07-08T10:22:25.906Z,1020.95
2018-07-08T10:23:25.691Z,1020.93
2018-07-08T10:24:25.679Z,1020.98
2018-07-08T10:25:25.740Z,1020.94
2018-07-08T10:26:25.857Z,1020.99
2018-07-08T10:27:28.467Z,1021.04
2018-07-08T10:28:27.049Z,1020.98
2018-07-08T10:29:25.823Z,1020.95
2018-07-08T10:30:25.867Z,1021.06
2018-07-08T10:31:25.594Z,1021.08
2018-07-08T10:32:25.590Z,1021.05
2018-07-08T10:33:25.774Z,1021.18
2018-07-08T10:34:25.561Z,1021.22
2018-07-08T10:35:25.593Z,1021.22
2018-07-08T10:36:25.578Z,1021.27
2018-07-08T10:37:25.520Z,1020.95
2018-07-08T10:38:25.710Z,1021.17
2018-07-08T10:39:25.709Z,1020.72
2018-07-08T10:41:07.846Z,1021.43
2018-07-08T10:42:07.833Z,1021.30
2018-07-08T10:43:09.035Z,1021.14
2018-07-08T10:44:07.809Z,1021.13
2018-07-08T10:45:07.800Z,1020.78
2018-07-08T10:46:50.549Z,1021.36
2018-07-08T10:47:49.929Z,1021.32
2018-07-08T10:48:49.916Z,1021.26
2018-07-08T10:49:49.702Z,1021.41
2018-07-08T10:50:49.971Z,1021.48
2018-07-08T10:51:49.879Z,1021.47
2018-07-08T10:52:49.664Z,1021.02
2018-07-08T10:53:51.065Z,1021.51
2018-07-08T10:54:49.637Z,1021.30
2018-07-08T10:55:49.624Z,1021.45
2018-07-08T10:56:49.616Z,1021.40
2018-07-08T10:57:49.605Z,1021.39
2018-07-08T10:58:49.598Z,1021.40
2018-07-08T10:59:49.777Z,1021.35
2018-07-08T11:00:49.767Z,1021.28
2018-07-08T11:01:49.591Z,1021.43
2018-07-08T11:02:49.541Z,1021.38
2018-07-08T11:03:49.527Z,1021.55
2018-07-08T11:04:49.717Z,1021.59
2018-07-08T11:05:49.704Z,1021.56
2018-07-08T11:06:49.490Z,1021.57
2018-07-08T11:07:49.684Z,1021.66
2018-07-08T11:08:49.668Z,1021.70
2018-07-08T11:09:49.455Z,1021.80
2018-07-08T11:10:49.681Z,1021.80
2018-07-08T11:11:49.636Z,1021.80
2018-07-08T11:12:49.425Z,1021.28
2018-07-08T11:13:49.408Z,1021.30
2018-07-08T11:14:49.406Z,1020.76
2018-07-08T11:15:49.385Z,1021.69
2018-07-08T11:16:49.374Z,1021.77
2018-07-08T11:17:49.575Z,1021.85
2018-07-08T11:18:49.355Z,1021.10
2018-07-08T11:19:49.341Z,1021.94
2018-07-08T11:20:49.574Z,1021.30
2018-07-08T11:21:49.520Z,1022.19
2018-07-08T11:22:49.507Z,1020.94
2018-07-08T11:23:49.494Z,1020.97
2018-07-08T11:24:49.283Z,1021.06
2018-07-08T11:25:49.267Z,1021.29
2018-07-08T11:26:49.255Z,1021.09
2018-07-08T11:27:49.243Z,1021.01
2018-07-08T11:28:49.436Z,1021.11
2018-07-08T11:29:49.422Z,1021.14
2018-07-08T11:30:49.208Z,1021.69
2018-07-08T11:31:49.193Z,1021.07
2018-07-08T11:32:52.009Z,1020.94
2018-07-08T11:33:49.371Z,1021.11
2018-07-08T11:34:49.358Z,1020.99
2018-07-08T11:35:49.346Z,1021.19
2018-07-08T11:36:49.331Z,1021.17
2018-07-08T11:37:49.119Z,1021.71
2018-07-08T11:38:49.101Z,1022.19
2018-07-08T11:39:49.087Z,1021.17
2018-07-08T11:40:49.075Z,1022.06
2018-07-08T11:41:49.064Z,1020.79
2018-07-08T11:42:49.118Z,1021.34
2018-07-08T11:43:49.044Z,1021.55
2018-07-08T11:44:49.025Z,1021.82
2018-07-08T11:45:49.011Z,1021.87
2018-07-08T11:46:48.998Z,1021.87
2018-07-08T11:47:48.984Z,1021.65
2018-07-08T11:48:48.972Z,1021.77
2018-07-08T11:49:48.990Z,1021.83
2018-07-08T11:50:49.153Z,1021.82
2018-07-08T11:51:48.937Z,1021.75
2018-07-08T11:52:48.927Z,1021.88
2018-07-08T11:53:49.114Z,1021.86
2018-07-08T11:54:48.902Z,1021.45
2018-07-08T11:55:48.891Z,1021.23
2018-07-08T11:56:48.879Z,1021.55
2018-07-08T11:57:48.869Z,1021.63
2018-07-08T11:58:48.860Z,1021.61
2018-07-08T11:59:48.846Z,1021.57
2018-07-08T12:00:48.838Z,1021.61
2018-07-08T12:01:48.834Z,1021.60
2018-07-08T12:02:48.811Z,1021.66
2018-07-08T12:03:48.799Z,1021.59
2018-07-08T12:04:48.787Z,1021.63
2018-07-08T12:05:48.979Z,1021.66
2018-07-08T12:06:48.766Z,1021.71
2018-07-08T12:07:48.756Z,1021.65
2018-07-08T12:08:48.747Z,1021.65
2018-07-08T12:09:48.937Z,1021.54
2018-07-08T12:10:48.724Z,1021.65
2018-07-08T12:11:48.713Z,1021.64
2018-07-08T12:12:48.700Z,1021.56
2018-07-08T12:13:48.693Z,1021.46
2018-07-08T12:14:48.677Z,1021.59